Managua, Nicaragua
Current Conditions -  °F | °C
As of 9:00 PM on Friday 19 Dec 2014 (Local Time) from MNMG Reporting Station
Clear Clear  
Wind Chill: 79°   Ceiling: Unl
Heat Index: 82°   Visibility: 6mi
Dew Point: 73°   Wind: 7mph
Humidity: 83%   Direction: 120°ESE
Pressure: 29.85"   Gusts: NA
Location:  12.15°N, 86.27°W
Report Text: MNMG 200300Z 12006KT CAVOK 26/23 Q1011 A2988 NOSIG
Loading
Personal Weather Stations






























Interactive Weather Map New forecast layout! Learn more

10-Day Weather Forecast

Advertisements
Track Severe Weather on mobile